Observation data for Post on 02/14/2017      Previous  Date  Next       Current Mesonet Observations  Soil Data  Daily Summary Page  Observations in Plain Language
KPT1 140600Z 01006KT 04/03 A3005 RMK A01 T00370026  RH  093%=      5-min Rain = 0
KPT1 140605Z 01007KT 04/03 A3005 RMK A01 T00370025  RH  093%=      5-min Rain = 0
KPT1 140610Z 01006KT 04/03 A3005 RMK A01 T00370025  RH  093%=      5-min Rain = 0
KPT1 140615Z 01006KT 04/03 A3005 RMK A01 T00370026  RH  093%=      5-min Rain = 0
KPT1 140620Z 01007KT 04/03 A3005 RMK A01 T00370025  RH  093%=      5-min Rain = 0
KPT1 140625Z 01007KT 04/03 A3005 RMK A01 T00370025  RH  093%=      5-min Rain = 0
KPT1 140630Z 00008KT 04/02 A3005 RMK A01 T00370024  RH  093%=      5-min Rain = 0
KPT1 140635Z 01007KT 04/02 A3005 RMK A01 T00370024  RH  093%=      5-min Rain = 0
KPT1 140640Z 02008KT 04/02 A3004 RMK A01 T00360024  RH  093%=      5-min Rain = 0
KPT1 140645Z 01008KT 04/02 A3004 RMK A01 T00360024  RH  093%=      5-min Rain = 0
KPT1 140650Z 02007KT 04/02 A3004 RMK A01 T00360024  RH  093%=      5-min Rain = 0
KPT1 140655Z 01007KT 04/02 A3004 RMK A01 T00360024  RH  093%=      5-min Rain = 0
KPT1 140700Z 01007KT 04/02 A3004 RMK A01 T00360024  RH  093%=      5-min Rain = 0
KPT1 140705Z 36006KT 04/02 A3004 RMK A01 T00360024  RH  093%=      5-min Rain = 0
KPT1 140710Z 01006KT 04/02 A3004 RMK A01 T00360024  RH  093%=      5-min Rain = 0
KPT1 140715Z 36006KT 04/02 A3004 RMK A01 T00360024  RH  093%=      5-min Rain = 0
KPT1 140720Z 00006KT 04/03 A3003 RMK A01 T00360025  RH  093%=      5-min Rain = 0
KPT1 140725Z 00007KT 04/03 A3002 RMK A01 T00360025  RH  093%=      5-min Rain = 0
KPT1 140730Z 00007KT 04/03 A3001 RMK A01 T00360025  RH  093%=      5-min Rain = 0
KPT1 140735Z 36007KT 04/03 A3002 RMK A01 T00360025  RH  094%=      5-min Rain = 0
KPT1 140740Z 35006KT 04/03 A3002 RMK A01 T00370026  RH  094%=      5-min Rain = 0
KPT1 140745Z 36006KT 04/03 A3002 RMK A01 T00370026  RH  094%=      5-min Rain = 0
KPT1 140750Z 00007KT 04/03 A3001 RMK A01 T00370026  RH  094%=      5-min Rain = 0
KPT1 140755Z 01005KT 04/03 A3003 RMK A01 T00370027  RH  094%=      5-min Rain = 0
KPT1 140800Z 02006KT 04/03 A3002 RMK A01 T00380026  RH  094%=      5-min Rain = 0
KPT1 140805Z 01005KT 04/03 A3003 RMK A01 T00380027  RH  094%=      5-min Rain = 0
KPT1 140810Z 36004KT 04/03 A3003 RMK A01 T00380027  RH  094%=      5-min Rain = 0
KPT1 140815Z 35004KT 04/03 A3003 RMK A01 T00380027  RH  094%=      5-min Rain = 0
KPT1 140820Z 35005KT 04/03 A3003 RMK A01 T00380027  RH  094%=      5-min Rain = 0
KPT1 140825Z 35007KT 04/03 A3003 RMK A01 T00380027  RH  094%=      5-min Rain = 0
KPT1 140830Z 35006KT 04/03 A3002 RMK A01 T00380027  RH  094%=      5-min Rain = 0
KPT1 140835Z 35007KT 04/03 A3002 RMK A01 T00380027  RH  094%=      5-min Rain = 0
KPT1 140840Z 35007KT 04/03 A3001 RMK A01 T00380027  RH  094%=      5-min Rain = 0
KPT1 140845Z 35007KT 04/03 A3001 RMK A01 T00380027  RH  094%=      5-min Rain = 0
KPT1 140850Z 35007KT 04/03 A3001 RMK A01 T00380027  RH  094%=      5-min Rain = 0
KPT1 140855Z 35007KT 04/03 A3002 RMK A01 T00380027  RH  094%=      5-min Rain = 0
KPT1 140900Z 36007KT 04/03 A3003 RMK A01 T00380027  RH  093%=      5-min Rain = 0
KPT1 140905Z 35006KT 04/03 A3004 RMK A01 T00390027  RH  093%=      5-min Rain = 0
KPT1 140910Z 35007KT 04/03 A3004 RMK A01 T00390027  RH  093%=      5-min Rain = 0
KPT1 140915Z 36007KT 04/03 A3003 RMK A01 T00390027  RH  093%=      5-min Rain = 0
KPT1 140920Z 35007KT 04/03 A3003 RMK A01 T00390027  RH  093%=      5-min Rain = 0
KPT1 140925Z 00007KT 04/03 A3003 RMK A01 T00390027  RH  093%=      5-min Rain = 0
KPT1 140930Z 36007KT 04/03 A3002 RMK A01 T00390027  RH  093%=      5-min Rain = 0
KPT1 140935Z 35007KT 04/03 A3002 RMK A01 T00390027  RH  094%=      5-min Rain = 0
KPT1 140940Z 35007KT 04/03 A3002 RMK A01 T00390028  RH  094%=      5-min Rain = 0
KPT1 140945Z 35008KT 04/03 A3002 RMK A01 T00380028  RH  094%=      5-min Rain = 0
KPT1 140950Z 36007KT 04/03 A3002 RMK A01 T00380028  RH  094%=      5-min Rain = 0
KPT1 140955Z 35008KT 04/03 A3002 RMK A01 T00370028  RH  095%=      5-min Rain = 0
KPT1 141000Z 35007KT 04/03 A3002 RMK A01 T00370028  RH  095%=      5-min Rain = 0
KPT1 141005Z 35007KT 04/03 A3002 RMK A01 T00370029  RH  095%=      5-min Rain = 0
KPT1 141010Z 35007KT 04/03 A3001 RMK A01 T00370029  RH  096%=      5-min Rain = 0
KPT1 141015Z 35008KT 04/03 A3001 RMK A01 T00370029  RH  096%=      5-min Rain = 0
KPT1 141020Z 35008KT 04/03 A30 RMK A01 T00360029  RH  096%=      5-min Rain = 0
KPT1 141025Z 35009KT 04/03 A2999 RMK A01 T00360029  RH  096%=      5-min Rain = 0
KPT1 141030Z 35007KT 04/03 A30 RMK A01 T00360029  RH  096%=      5-min Rain = 0
KPT1 141035Z 34007KT 04/03 A3002 RMK A01 T00370030  RH  096%=      5-min Rain = 0
KPT1 141040Z 35007KT 04/03 A3002 RMK A01 T00370030  RH  096%=      5-min Rain = 0
KPT1 141045Z 35006KT 04/03 A3002 RMK A01 T00370030  RH  096%=      5-min Rain = 0
KPT1 141050Z 35006KT 04/03 A3002 RMK A01 T00380030  RH  096%=      5-min Rain = 0
KPT1 141055Z 35005KT 04/03 A3003 RMK A01 T00380031  RH  096%=      5-min Rain = 0
KPT1 141100Z 35005KT 04/03 A3003 RMK A01 T00380031  RH  096%=      5-min Rain = 0
KPT1 141105Z 33005KT 04/03 A3003 RMK A01 T00380031  RH  096%=      5-min Rain = 0
KPT1 141110Z 33005KT 04/03 A3003 RMK A01 T00390031  RH  096%=      5-min Rain = 0
KPT1 141115Z 32004KT 04/03 A3003 RMK A01 T00390031  RH  096%=      5-min Rain = 0
KPT1 141120Z 32004KT 04/03 A3003 RMK A01 T00390032  RH  096%=      5-min Rain = 0
KPT1 141125Z 32005KT 04/03 A3003 RMK A01 T00390032  RH  096%=      5-min Rain = 0
KPT1 141130Z 32005KT 04/03 A3002 RMK A01 T00390032  RH  096%=      5-min Rain = 0
KPT1 141135Z 32005KT 04/03 A3002 RMK A01 T00400032  RH  096%=      5-min Rain = 0
KPT1 141140Z 32006KT 04/03 A3002 RMK A01 T00400033  RH  096%=      5-min Rain = 0
KPT1 141145Z 33006KT 04/03 A3002 RMK A01 T00400033  RH  096%=      5-min Rain = 0
KPT1 141150Z 33005KT 04/03 A3002 RMK A01 T00400033  RH  096%=      5-min Rain = 0
KPT1 141155Z 33005KT 04/03 A3002 RMK A01 T00400033  RH  096%=      5-min Rain = 0
KPT1 141200Z 33005KT 04/03 A3002 RMK A01 T00400033  RH  096%=      5-min Rain = 0
KPT1 141205Z 33004KT 04/03 A3002 RMK A01 T00400033  RH  096%=      5-min Rain = 0
KPT1 141210Z 33005KT 04/03 A3001 RMK A01 T00400033  RH  096%=      5-min Rain = 0
KPT1 141215Z 32004KT 04/03 A3001 RMK A01 T00410034  RH  096%=      5-min Rain = 0
KPT1 141220Z 33004KT 04/03 A3001 RMK A01 T00410034  RH  096%=      5-min Rain = 0
KPT1 141225Z 33005KT 04/03 A3001 RMK A01 T00410034  RH  097%=      5-min Rain = 0
KPT1 141230Z 33004KT 04/03 A3002 RMK A01 T00410034  RH  097%=      5-min Rain = 0
KPT1 141235Z 32004KT 04/03 A3002 RMK A01 T00410034  RH  097%=      5-min Rain = 0
KPT1 141240Z 32004KT 04/04 A3002 RMK A01 T00420035  RH  097%=      5-min Rain = 0
KPT1 141245Z 33004KT 04/04 A3002 RMK A01 T00420035  RH  097%=      5-min Rain = 0
KPT1 141250Z 33009G16KT 04/03 A3002 RMK A01 T00410034  RH  097%=      5-min Rain = 0
KPT1 141255Z 33010KT 04/03 A3002 RMK A01 T00390032  RH  096%=      5-min Rain = 0
KPT1 141300Z 33010KT 04/03 A3002 RMK A01 T00380031  RH  096%=      5-min Rain = 0
KPT1 141305Z 33009KT 04/03 A3002 RMK A01 T00380030  RH  096%=      5-min Rain = 0
KPT1 141310Z 33010KT 04/03 A3002 RMK A01 T00370028  RH  095%=      5-min Rain = 0
KPT1 141315Z 33010KT 04/03 A3002 RMK A01 T00360028  RH  095%=      5-min Rain = 0
KPT1 141320Z 33010KT 04/03 A3002 RMK A01 T00360028  RH  096%=      5-min Rain = 0
KPT1 141325Z 33010G15KT 04/03 A3002 RMK A01 T00360028  RH  096%=      5-min Rain = 0
KPT1 141330Z 33010KT 04/03 A3002 RMK A01 T00360028  RH  096%=      5-min Rain = 0
KPT1 141335Z 33011KT 04/03 A3002 RMK A01 T00350026  RH  095%=      5-min Rain = 0
KPT1 141340Z 33010KT 04/03 A3002 RMK A01 T00350025  RH  095%=      5-min Rain = 0
KPT1 141345Z 34011KT 04/03 A3002 RMK A01 T00350025  RH  094%=      5-min Rain = 0
KPT1 141350Z 34011KT 04/03 A3002 RMK A01 T00350025  RH  094%=      5-min Rain = 0
KPT1 141355Z 34010KT 04/02 A3002 RMK A01 T00360024  RH  093%=      5-min Rain = 0
KPT1 141400Z 34009KT 04/02 A3003 RMK A01 T00360023  RH  093%=      5-min Rain = 0
KPT1 141405Z 33008KT 04/02 A3003 RMK A01 T00360023  RH  092%=      5-min Rain = 0
KPT1 141410Z 33008KT 04/02 A3003 RMK A01 T00360022  RH  092%=      5-min Rain = 0
KPT1 141415Z 33008KT 04/02 A3004 RMK A01 T00360022  RH  092%=      5-min Rain = 0
KPT1 141420Z 32008G13KT 04/02 A3004 RMK A01 T00370023  RH  092%=      5-min Rain = 0
KPT1 141425Z 32009G14KT 04/02 A3004 RMK A01 T00380024  RH  091%=      5-min Rain = 0
KPT1 141430Z 32010KT 04/02 A3004 RMK A01 T00390023  RH  091%=      5-min Rain = 0
KPT1 141435Z 32007KT 04/02 A3005 RMK A01 T00390024  RH  091%=      5-min Rain = 0
KPT1 141440Z 32007KT 04/03 A3005 RMK A01 T00390025  RH  092%=      5-min Rain = 0
KPT1 141445Z 31006KT 04/03 A3005 RMK A01 T00390025  RH  092%=      5-min Rain = 0
KPT1 141450Z 31007KT 04/03 A3005 RMK A01 T00400025  RH  091%=      5-min Rain = 0
KPT1 141455Z 33007KT 04/03 A3006 RMK A01 T00410025  RH  090%=      5-min Rain = 0
KPT1 141500Z 33008KT 04/02 A3006 RMK A01 T00420024  RH  089%=      5-min Rain = 0
KPT1 141505Z 33009KT 04/02 A3006 RMK A01 T00440023  RH  088%=      5-min Rain = 0
KPT1 141510Z 33008G13KT 04/02 A3006 RMK A01 T00440024  RH  088%=      5-min Rain = 0
KPT1 141515Z 33010KT 04/02 A3006 RMK A01 T00440022  RH  087%=      5-min Rain = 0
KPT1 141520Z 34010KT 04/02 A3006 RMK A01 T00440022  RH  087%=      5-min Rain = 0
KPT1 141525Z 34013KT 04/02 A3006 RMK A01 T00440020  RH  085%=      5-min Rain = 0
KPT1 141530Z 35013KT 04/02 A3007 RMK A01 T00430017  RH  084%=      5-min Rain = 0
KPT1 141535Z 35012G17KT 04/02 A3007 RMK A01 T00420016  RH  084%=      5-min Rain = 0
KPT1 141540Z 35012G17KT 04/01 A3007 RMK A01 T00430014  RH  083%=      5-min Rain = 0
KPT1 141545Z 35010KT 04/02 A3007 RMK A01 T00430016  RH  084%=      5-min Rain = 0
KPT1 141550Z 35011KT 04/02 A3007 RMK A01 T00420016  RH  084%=      5-min Rain = 0
KPT1 141555Z 34010KT 04/02 A3007 RMK A01 T00420018  RH  086%=      5-min Rain = 0
KPT1 141600Z 34011KT 04/02 A3008 RMK A01 T00410020  RH  087%=      5-min Rain = 0
KPT1 141605Z 34011KT 04/02 A3008 RMK A01 T00400022  RH  089%=      5-min Rain = 0
KPT1 141610Z 34012G17KT 04/02 A3008 RMK A01 T00400022  RH  089%=      5-min Rain = 0
KPT1 141615Z 35010KT 04/02 A3007 RMK A01 T00410022  RH  089%=      5-min Rain = 0
KPT1 141620Z 34010KT 04/02 A3007 RMK A01 T00420023  RH  089%=      5-min Rain = 0
KPT1 141625Z 34011G16KT 04/02 A3007 RMK A01 T00420024  RH  089%=      5-min Rain = 0
KPT1 141630Z 34010G17KT 04/03 A3007 RMK A01 T00420026  RH  090%=      5-min Rain = 0
KPT1 141635Z 34013KT 04/03 A3007 RMK A01 T00410025  RH  090%=      5-min Rain = 0
KPT1 141640Z 34013G18KT 04/03 A3007 RMK A01 T00420026  RH  090%=      5-min Rain = 0
KPT1 141645Z 35013KT 04/03 A3007 RMK A01 T00420026  RH  090%=      5-min Rain = 0
KPT1 141650Z 35014G19KT 04/03 A3007 RMK A01 T00420025  RH  090%=      5-min Rain = 0
KPT1 141655Z 35013G21KT 04/03 A3007 RMK A01 T00420026  RH  090%=      5-min Rain = 0
KPT1 141700Z 35014G19KT 04/03 A3007 RMK A01 T00410025  RH  090%=      5-min Rain = 0
KPT1 141705Z 35013G18KT 04/03 A3007 RMK A01 T00410026  RH  090%=      5-min Rain = 0
KPT1 141710Z 35013G18KT 04/03 A3007 RMK A01 T00420025  RH  090%=      5-min Rain = 0
KPT1 141715Z 36012G18KT 04/03 A3008 RMK A01 T00430027  RH  090%=      5-min Rain = 0
KPT1 141720Z 36015G21KT 04/03 A3008 RMK A01 T00420025  RH  090%=      5-min Rain = 0
KPT1 141725Z 00015KT 04/02 A3008 RMK A01 T00410023  RH  089%=      5-min Rain = 0
KPT1 141730Z 00014G19KT 04/02 A3008 RMK A01 T00430023  RH  088%=      5-min Rain = 0
KPT1 141735Z 35011G16KT 04/03 A3008 RMK A01 T00440025  RH  088%=      5-min Rain = 0
KPT1 141740Z 36010KT 05/03 A3008 RMK A01 T00460026  RH  088%=      5-min Rain = 0
KPT1 141745Z 36012G17KT 05/02 A3008 RMK A01 T00450024  RH  087%=      5-min Rain = 0
KPT1 141750Z 36012KT 04/02 A3008 RMK A01 T00440022  RH  087%=      5-min Rain = 0
KPT1 141755Z 36012KT 05/02 A3008 RMK A01 T00450022  RH  086%=      5-min Rain = 0
KPT1 141800Z 35010G15KT 05/02 A3008 RMK A01 T00460022  RH  086%=      5-min Rain = 0
KPT1 141805Z 35011G17KT 05/02 A3008 RMK A01 T00460021  RH  085%=      5-min Rain = 0
KPT1 141810Z 36011G16KT 05/02 A3008 RMK A01 T00470021  RH  084%=      5-min Rain = 0
KPT1 141815Z 36012G18KT 05/02 A3008 RMK A01 T00470022  RH  085%=      5-min Rain = 0
KPT1 141820Z 36012KT 05/02 A3008 RMK A01 T00480022  RH  084%=      5-min Rain = 0
KPT1 141825Z 36013G19KT 05/02 A3007 RMK A01 T00500021  RH  083%=      5-min Rain = 0
KPT1 141830Z 36013G18KT 05/02 A3008 RMK A01 T00500020  RH  082%=      5-min Rain = 0
KPT1 141835Z 00015G22KT 05/02 A3007 RMK A01 T00490020  RH  082%=      5-min Rain = 0
KPT1 141840Z 36016G21KT 05/02 A3007 RMK A01 T00490020  RH  083%=      5-min Rain = 0
KPT1 141845Z 36017G23KT 05/02 A3007 RMK A01 T00480018  RH  082%=      5-min Rain = 0
KPT1 141850Z 00014G21KT 05/02 A3007 RMK A01 T00490018  RH  081%=      5-min Rain = 0
KPT1 141855Z 00015G23KT 05/02 A3007 RMK A01 T00500018  RH  080%=      5-min Rain = 0
KPT1 141900Z 00017KT 05/02 A3007 RMK A01 T00500015  RH  079%=      5-min Rain = 0
KPT1 141905Z 01016G21KT 05/02 A3008 RMK A01 T00500016  RH  079%=      5-min Rain = 0
KPT1 141910Z 01014G20KT 05/02 A3008 RMK A01 T00500016  RH  080%=      5-min Rain = 0
KPT1 141915Z 00015G22KT 05/02 A3008 RMK A01 T00500017  RH  080%=      5-min Rain = 0
KPT1 141920Z 01017KT 05/02 A3008 RMK A01 T00490015  RH  079%=      5-min Rain = 0
KPT1 141925Z 01016G22KT 05/01 A3008 RMK A01 T00480014  RH  080%=      5-min Rain = 0
KPT1 141930Z 01012G18KT 05/02 A3008 RMK A01 T00480016  RH  081%=      5-min Rain = 0
KPT1 141935Z 01013G18KT 05/02 A3008 RMK A01 T00490016  RH  080%=      5-min Rain = 0
KPT1 141940Z 01014G20KT 05/01 A3008 RMK A01 T00490014  RH  079%=      5-min Rain = 0
KPT1 141945Z 01015KT 05/01 A3008 RMK A01 T00480014  RH  079%=      5-min Rain = 0
KPT1 141950Z 01012G17KT 05/02 A3008 RMK A01 T00480017  RH  081%=      5-min Rain = 0
KPT1 141955Z 35014G21KT 05/02 A3008 RMK A01 T00480016  RH  081%=      5-min Rain = 0
KPT1 142000Z 35014G19KT 05/02 A3008 RMK A01 T00460017  RH  083%=      5-min Rain = 0
KPT1 142005Z 35016G24KT 05/02 A3008 RMK A01 T00450017  RH  083%=      5-min Rain = 0
KPT1 142010Z 35018G23KT 04/02 A3007 RMK A01 T00440016  RH  083%=      5-min Rain = 0
KPT1 142015Z 36017G24KT 04/02 A3007 RMK A01 T00430016  RH  084%=      5-min Rain = 0
KPT1 142020Z 36017G26KT 04/02 A3007 RMK A01 T00420016  RH  084%=      5-min Rain = 0
KPT1 142025Z 36016G23KT 04/02 A3008 RMK A01 T00410015  RH  084%=      5-min Rain = 0
KPT1 142030Z 35015G27KT 04/02 A3008 RMK A01 T00410015  RH  084%=      5-min Rain = 0
KPT1 142035Z 36017G23KT 04/01 A3007 RMK A01 T00420012  RH  081%=      5-min Rain = 0
KPT1 142040Z 35016G22KT 04/01 A3007 RMK A01 T00430011  RH  081%=      5-min Rain = 0
KPT1 142045Z 36017G22KT 04/01 A3007 RMK A01 T00430010  RH  080%=      5-min Rain = 0.01
KPT1 142050Z 35017G23KT 04/01 A3007 RMK A01 T00430010  RH  080%=      5-min Rain = 0
KPT1 142055Z 36016G22KT 04/01 A3008 RMK A01 T00430009  RH  079%=      5-min Rain = 0
KPT1 142100Z 36017KT 04/01 A3008 RMK A01 T00440008  RH  078%=      5-min Rain = 0
KPT1 142105Z 36016G23KT 05/01 A3008 RMK A01 T00450008  RH  078%=      5-min Rain = 0
KPT1 142110Z 36016G22KT 05/01 A3008 RMK A01 T00460008  RH  077%=      5-min Rain = 0
KPT1 142115Z 36017G24KT 05/01 A3008 RMK A01 T00450007  RH  077%=      5-min Rain = 0
KPT1 142120Z 36017G24KT 05/01 A3008 RMK A01 T00450006  RH  077%=      5-min Rain = 0
KPT1 142125Z 36015G20KT 05/01 A3009 RMK A01 T00460007  RH  077%=      5-min Rain = 0
KPT1 142130Z 36016G24KT 05/01 A3009 RMK A01 T00460006  RH  076%=      5-min Rain = 0
KPT1 142135Z 35012G17KT 05/01 A3009 RMK A01 T00460009  RH  078%=      5-min Rain = 0
KPT1 142140Z 36019G24KT 05/00 A3009 RMK A01 T00460003  RH  075%=      5-min Rain = 0
KPT1 142145Z 35016G26KT 05/00 A3009 RMK A01 T00460003  RH  075%=      5-min Rain = 0
KPT1 142150Z 35016G25KT 05/00 A3009 RMK A01 T00460004  RH  075%=      5-min Rain = 0
KPT1 142155Z 34014G20KT 05/01 A3009 RMK A01 T00460005  RH  076%=      5-min Rain = 0
KPT1 142200Z 35016G24KT 05/00 A3009 RMK A01 T00460003  RH  075%=      5-min Rain = 0
KPT1 142205Z 36014G21KT 05/00 A3009 RMK A01 T00460003  RH  075%=      5-min Rain = 0
KPT1 142210Z 35013G19KT 05/00 A3009 RMK A01 T00460003  RH  075%=      5-min Rain = 0
KPT1 142215Z 35013G19KT 05/01 A301 RMK A01 T00460005  RH  075%=      5-min Rain = 0
KPT1 142220Z 34016G21KT 05/00 A301 RMK A01 T00460004  RH  075%=      5-min Rain = 0
KPT1 142225Z 35015G22KT 05/00 A301 RMK A01 T00460002  RH  074%=      5-min Rain = 0
KPT1 142230Z 35016G24KT 05/00 A301 RMK A01 T00460002  RH  074%=      5-min Rain = 0
KPT1 142235Z 35019G26KT 05/M00 A301 RMK A01 T00461002  RH  072%=      5-min Rain = 0
KPT1 142240Z 35016G23KT 05/00 A301 RMK A01 T00460000  RH  073%=      5-min Rain = 0
KPT1 142245Z 36017G24KT 05/M00 A301 RMK A01 T00461001  RH  072%=      5-min Rain = 0
KPT1 142250Z 34014G20KT 05/00 A301 RMK A01 T00460002  RH  074%=      5-min Rain = 0
KPT1 142255Z 34016G25KT 05/00 A3011 RMK A01 T00450001  RH  074%=      5-min Rain = 0
KPT1 142300Z 35017G23KT 04/M00 A3011 RMK A01 T00441003  RH  072%=      5-min Rain = 0
KPT1 142305Z 35015G20KT 04/M00 A3011 RMK A01 T00441003  RH  073%=      5-min Rain = 0
KPT1 142310Z 35015G25KT 04/M00 A3011 RMK A01 T00441004  RH  072%=      5-min Rain = 0
KPT1 142315Z 36016G21KT 04/M01 A3011 RMK A01 T00441006  RH  071%=      5-min Rain = 0
KPT1 142320Z 34013KT 04/M00 A3012 RMK A01 T00441001  RH  073%=      5-min Rain = 0
KPT1 142325Z 34015G21KT 04/M00 A3012 RMK A01 T00431002  RH  074%=      5-min Rain = 0
KPT1 142330Z 34015G21KT 04/M00 A3012 RMK A01 T00421002  RH  074%=      5-min Rain = 0
KPT1 142335Z 35016G23KT 04/M01 A3013 RMK A01 T00421005  RH  072%=      5-min Rain = 0
KPT1 142340Z 34017G23KT 04/M01 A3013 RMK A01 T00421007  RH  071%=      5-min Rain = 0
KPT1 142345Z 35014G20KT 04/M01 A3013 RMK A01 T00421007  RH  072%=      5-min Rain = 0
KPT1 142350Z 35013G18KT 04/M01 A3013 RMK A01 T00421006  RH  072%=      5-min Rain = 0
KPT1 142355Z 35014G21KT 04/M01 A3013 RMK A01 T00411007  RH  071%=      5-min Rain = 0
KPT1 150000Z 35014G20KT 04/M01 A3013 RMK A01 T00411007  RH  072%=      5-min Rain = 0
KPT1 150005Z 35013G18KT 04/M01 A3013 RMK A01 T00411006  RH  072%=      5-min Rain = 0
KPT1 150010Z 35012G18KT 04/M01 A3013 RMK A01 T00411006  RH  072%=      5-min Rain = 0
KPT1 150015Z 35012G18KT 04/M01 A3013 RMK A01 T00411009  RH  071%=      5-min Rain = 0
KPT1 150020Z 35012G18KT 04/M01 A3013 RMK A01 T00411011  RH  070%=      5-min Rain = 0
KPT1 150025Z 35010G16KT 04/M01 A3014 RMK A01 T00401012  RH  069%=      5-min Rain = 0
KPT1 150030Z 35011KT 04/M01 A3014 RMK A01 T00401014  RH  069%=      5-min Rain = 0
KPT1 150035Z 34009KT 04/M01 A3014 RMK A01 T00401011  RH  070%=      5-min Rain = 0
KPT1 150040Z 33010KT 04/M01 A3014 RMK A01 T00401009  RH  071%=      5-min Rain = 0
KPT1 150045Z 33011KT 04/M01 A3015 RMK A01 T00401009  RH  071%=      5-min Rain = 0
KPT1 150050Z 33010KT 04/M01 A3015 RMK A01 T00401008  RH  072%=      5-min Rain = 0
KPT1 150055Z 33009KT 04/M01 A3015 RMK A01 T00401007  RH  072%=      5-min Rain = 0
KPT1 150100Z 33009KT 04/M01 A3015 RMK A01 T00401007  RH  072%=      5-min Rain = 0
KPT1 150105Z 33008KT 04/M01 A3015 RMK A01 T00401006  RH  073%=      5-min Rain = 0
KPT1 150110Z 33008KT 04/M01 A3015 RMK A01 T00401005  RH  073%=      5-min Rain = 0
KPT1 150115Z 32007KT 04/M00 A3015 RMK A01 T00391004  RH  074%=      5-min Rain = 0
KPT1 150120Z 32006KT 04/M00 A3015 RMK A01 T00391003  RH  075%=      5-min Rain = 0
KPT1 150125Z 32007KT 04/M00 A3016 RMK A01 T00401003  RH  075%=      5-min Rain = 0
KPT1 150130Z 32007KT 04/M00 A3016 RMK A01 T00391002  RH  075%=      5-min Rain = 0
KPT1 150135Z 31007KT 04/M00 A3016 RMK A01 T00391002  RH  075%=      5-min Rain = 0
KPT1 150140Z 31007KT 04/M00 A3016 RMK A01 T00391002  RH  075%=      5-min Rain = 0
KPT1 150145Z 31007KT 04/M00 A3016 RMK A01 T00391001  RH  076%=      5-min Rain = 0
KPT1 150150Z 31008KT 04/M00 A3016 RMK A01 T00391001  RH  076%=      5-min Rain = 0
KPT1 150155Z 31008KT 04/M00 A3016 RMK A01 T00401001  RH  076%=      5-min Rain = 0
KPT1 150200Z 31008KT 04/00 A3016 RMK A01 T004000-0  RH  076%=      5-min Rain = 0
KPT1 150205Z 31009KT 04/00 A3016 RMK A01 T004100-0  RH  075%=      5-min Rain = 0
KPT1 150210Z 31009KT 04/00 A3016 RMK A01 T004200-0  RH  075%=      5-min Rain = 0
KPT1 150215Z 31009KT 04/M00 A3016 RMK A01 T00431001  RH  074%=      5-min Rain = 0
KPT1 150220Z 31010KT 04/M00 A3017 RMK A01 T00441001  RH  074%=      5-min Rain = 0
KPT1 150225Z 31010KT 04/M00 A3017 RMK A01 T00441001  RH  074%=      5-min Rain = 0
KPT1 150230Z 31011KT 05/M00 A3017 RMK A01 T00451001  RH  073%=      5-min Rain = 0
KPT1 150235Z 31011KT 05/M00 A3017 RMK A01 T00451002  RH  072%=      5-min Rain = 0
KPT1 150240Z 31011KT 05/M00 A3017 RMK A01 T00461002  RH  072%=      5-min Rain = 0
KPT1 150245Z 31010KT 05/M00 A3017 RMK A01 T00461002  RH  072%=      5-min Rain = 0
KPT1 150250Z 31011G16KT 05/M00 A3017 RMK A01 T00471003  RH  071%=      5-min Rain = 0
KPT1 150255Z 31010KT 05/M00 A3018 RMK A01 T00481003  RH  070%=      5-min Rain = 0
KPT1 150300Z 32010KT 05/M00 A3018 RMK A01 T00481004  RH  069%=      5-min Rain = 0
KPT1 150305Z 32010KT 05/M01 A3018 RMK A01 T00501006  RH  068%=      5-min Rain = 0
KPT1 150310Z 32010KT 05/M01 A3018 RMK A01 T00491005  RH  069%=      5-min Rain = 0
KPT1 150315Z 32008G14KT 05/M00 A3018 RMK A01 T00491004  RH  069%=      5-min Rain = 0
KPT1 150320Z 32010KT 05/M01 A3018 RMK A01 T00501005  RH  068%=      5-min Rain = 0
KPT1 150325Z 32010KT 05/M00 A3018 RMK A01 T00511004  RH  068%=      5-min Rain = 0
KPT1 150330Z 32010KT 05/M01 A3018 RMK A01 T00511005  RH  068%=      5-min Rain = 0
KPT1 150335Z 32010KT 05/M01 A3018 RMK A01 T00521005  RH  067%=      5-min Rain = 0
KPT1 150340Z 32010KT 05/M01 A3018 RMK A01 T00531006  RH  066%=      5-min Rain = 0
KPT1 150345Z 32010KT 06/M01 A3018 RMK A01 T00551007  RH  065%=      5-min Rain = 0
KPT1 150350Z 32009G14KT 05/M01 A3018 RMK A01 T00541006  RH  066%=      5-min Rain = 0
KPT1 150355Z 31009KT 05/M01 A3018 RMK A01 T00531005  RH  067%=      5-min Rain = 0
KPT1 150400Z 32010KT 05/M01 A3018 RMK A01 T00541005  RH  066%=      5-min Rain = 0
KPT1 150405Z 32010KT 05/M01 A3018 RMK A01 T00541006  RH  066%=      5-min Rain = 0
KPT1 150410Z 32011KT 05/M01 A3018 RMK A01 T00541006  RH  066%=      5-min Rain = 0
KPT1 150415Z 32010KT 05/M01 A3018 RMK A01 T00541007  RH  066%=      5-min Rain = 0
KPT1 150420Z 32010KT 05/M01 A3018 RMK A01 T00541006  RH  066%=      5-min Rain = 0
KPT1 150425Z 32010KT 05/M01 A3018 RMK A01 T00531006  RH  066%=      5-min Rain = 0
KPT1 150430Z 32010KT 05/M01 A3018 RMK A01 T00521007  RH  066%=      5-min Rain = 0
KPT1 150435Z 32011KT 05/M01 A3017 RMK A01 T00531007  RH  066%=      5-min Rain = 0
KPT1 150440Z 31010KT 05/M01 A3017 RMK A01 T00521008  RH  066%=      5-min Rain = 0
KPT1 150445Z 31011KT 05/M01 A3017 RMK A01 T00521010  RH  065%=      5-min Rain = 0
KPT1 150450Z 31010KT 05/M01 A3017 RMK A01 T00501010  RH  066%=      5-min Rain = 0
KPT1 150455Z 31010KT 05/M01 A3017 RMK A01 T00491011  RH  066%=      5-min Rain = 0
KPT1 150500Z 31010KT 05/M01 A3017 RMK A01 T00471011  RH  067%=      5-min Rain = 0
KPT1 150505Z 31010KT 05/M01 A3017 RMK A01 T00461011  RH  067%=      5-min Rain = 0
KPT1 150510Z 31010KT 05/M01 A3017 RMK A01 T00461010  RH  067%=      5-min Rain = 0
KPT1 150515Z 31010KT 05/M01 A3017 RMK A01 T00461010  RH  068%=      5-min Rain = 0
KPT1 150520Z 31010KT 05/M01 A3017 RMK A01 T00461010  RH  068%=      5-min Rain = 0
KPT1 150525Z 31010KT 05/M01 A3017 RMK A01 T00451009  RH  068%=      5-min Rain = 0
KPT1 150530Z 31010KT 04/M01 A3017 RMK A01 T00441009  RH  069%=      5-min Rain = 0
KPT1 150535Z 31010KT 04/M01 A3017 RMK A01 T00441010  RH  069%=      5-min Rain = 0
KPT1 150540Z 31010KT 04/M01 A3017 RMK A01 T00431009  RH  070%=      5-min Rain = 0
KPT1 150545Z 31010KT 04/M01 A3017 RMK A01 T00421010  RH  070%=      5-min Rain = 0
KPT1 150550Z 31011KT 04/M01 A3017 RMK A01 T00421010  RH  070%=      5-min Rain = 0
KPT1 150555Z 31011KT 04/M01 A3017 RMK A01 T00421011  RH  069%=      5-min Rain = 0

Page generated in 0.009 seconds.